Time;durP1;ratioP1;P1;durP2;ratioP2;P2;SDS_P1;SDS_P2;PMS_P1;PMS_P2;Temp;Humidity;BMP_temperature;BMP_pressure;BME280_temperature;BME280_humidity;BME280_pressure;Samples;Min_cycle;Max_cycle;Signal;HPM_P1;HPM_P2
2021/08/13 00:01:22;;;;;;;16.52;14.82;;;;;;;-145.71;100.00;60690.53;5016895;28;20033;-82
2021/08/13 00:03:47;;;;;;;16.88;14.98;;;;;;;-145.71;100.00;60690.53;5033574;28;20033;-82
2021/08/13 00:06:13;;;;;;;18.23;16.00;;;;;;;-145.71;100.00;60690.53;5033165;28;20128;-82
2021/08/13 00:08:38;;;;;;;17.58;15.18;;;;;;;-145.71;100.00;60690.53;5013958;28;20032;-82
2021/08/13 00:11:04;;;;;;;19.77;15.82;;;;;;;-145.71;100.00;60690.53;5033434;28;20389;-82
2021/08/13 00:13:30;;;;;;;21.95;17.80;;;;;;;-145.71;100.00;60690.53;5016230;28;20110;-81
2021/08/13 00:15:55;;;;;;;18.92;16.67;;;;;;;-145.71;100.00;60690.53;5033841;28;20033;-82
2021/08/13 00:18:21;;;;;;;27.00;16.58;;;;;;;-145.71;100.00;60690.53;5033206;28;20021;-81
2021/08/13 00:20:46;;;;;;;19.65;16.67;;;;;;;-145.71;100.00;60690.53;5014542;28;20025;-82
2021/08/13 00:23:12;;;;;;;20.83;15.52;;;;;;;-145.71;100.00;60690.53;5031543;28;20456;-82
2021/08/13 00:25:37;;;;;;;22.67;17.73;;;;;;;-145.71;100.00;60690.53;5031409;28;20494;-82
2021/08/13 00:28:03;;;;;;;18.10;16.10;;;;;;;-145.71;100.00;60690.53;5016623;28;20091;-82
2021/08/13 00:30:29;;;;;;;21.10;18.65;;;;;;;-145.71;100.00;60690.53;5034108;28;20032;-82
2021/08/13 00:32:55;;;;;;;19.15;15.55;;;;;;;-145.71;100.00;60690.53;5033917;28;20033;-82
2021/08/13 00:35:20;;;;;;;27.27;19.65;;;;;;;-145.71;100.00;60690.53;5015131;28;20972;-82
2021/08/13 00:37:45;;;;;;;22.00;19.70;;;;;;;-145.71;100.00;60690.53;5014086;28;20022;-82
2021/08/13 00:40:11;;;;;;;21.30;18.95;;;;;;;-145.71;100.00;60690.53;5014904;28;20116;-82
2021/08/13 00:42:37;;;;;;;21.05;18.40;;;;;;;-145.71;100.00;60690.53;5034097;28;20695;-82
2021/08/13 00:45:04;;;;;;;25.42;21.20;;;;;;;-145.71;100.00;60690.53;5014761;28;20033;-82
2021/08/13 00:47:30;;;;;;;23.27;18.60;;;;;;;-145.71;100.00;60690.53;5013600;28;20370;-81
2021/08/13 00:49:55;;;;;;;20.80;18.58;;;;;;;-145.71;100.00;60690.53;5032433;28;20112;-81
2021/08/13 00:52:20;;;;;;;28.15;22.40;;;;;;;-145.71;100.00;60690.53;5032087;28;20029;-81
2021/08/13 00:54:46;;;;;;;27.23;21.45;;;;;;;-145.71;100.00;60690.53;5031505;28;20668;-81
2021/08/13 00:57:11;;;;;;;26.80;22.52;;;;;;;-145.71;100.00;60690.53;5013286;28;20030;-81
2021/08/13 00:59:44;;;;;;;27.77;22.90;;;;;;;-145.71;100.00;60690.53;5030884;28;20033;-81
2021/08/13 01:02:10;;;;;;;24.10;21.17;;;;;;;-145.71;100.00;60690.53;5030637;28;20033;-82
2021/08/13 01:04:36;;;;;;;35.90;25.10;;;;;;;-145.71;100.00;60690.53;5034943;28;20071;-82
2021/08/13 01:07:03;;;;;;;22.15;19.75;;;;;;;-145.71;100.00;60690.53;5033405;28;20025;-82
2021/08/13 01:09:29;;;;;;;25.83;21.08;;;;;;;-145.71;100.00;60690.53;5033027;28;20040;-82
2021/08/13 01:12:12;;;;;;;24.17;21.77;;;;;;;-145.71;100.00;60690.53;5033352;28;20393;-82
2021/08/13 01:14:59;;;;;;;23.58;20.92;;;;;;;-145.71;100.00;60690.53;5033431;28;20029;-82
2021/08/13 01:17:28;;;;;;;21.73;19.45;;;;;;;-145.71;100.00;60690.53;5032966;28;20040;-82
2021/08/13 01:20:15;;;;;;;27.23;23.02;;;;;;;-145.71;100.00;60690.53;5031635;28;20132;-82
2021/08/13 01:23:03;;;;;;;29.20;26.13;;;;;;;-145.71;100.00;60690.53;5031335;28;20087;-82
2021/08/13 01:25:33;;;;;;;28.85;25.17;;;;;;;-145.71;100.00;60690.53;5031071;28;20067;-81
2021/08/13 01:28:06;;;;;;;31.13;27.85;;;;;;;-145.71;100.00;60690.53;5030409;28;20396;-82
2021/08/13 01:30:34;;;;;;;27.77;23.73;;;;;;;-145.71;100.00;60690.53;5030031;28;20544;-82
2021/08/13 01:33:12;;;;;;;25.92;23.23;;;;;;;-145.71;100.00;60690.53;5029793;28;20021;-82
2021/08/13 01:35:42;;;;;;;27.83;24.92;;;;;;;-145.71;100.00;60690.53;5032049;28;20029;-82
2021/08/13 01:38:16;;;;;;;28.20;23.52;;;;;;;-145.71;100.00;60690.53;5033237;28;20025;-82
2021/08/13 01:40:46;;;;;;;25.77;23.02;;;;;;;-145.71;100.00;60690.53;5035012;28;20040;-82
2021/08/13 01:43:14;;;;;;;28.23;24.13;;;;;;;-145.71;100.00;60690.53;5014362;28;20120;-82
2021/08/13 01:45:40;;;;;;;28.85;25.92;;;;;;;-145.71;100.00;60690.53;5032025;28;20481;-82
2021/08/13 01:48:08;;;;;;;34.67;29.92;;;;;;;-145.71;100.00;60690.53;5012699;28;20040;-82
2021/08/13 01:50:33;;;;;;;35.40;29.63;;;;;;;-145.71;100.00;60690.53;5030504;28;20630;-82
2021/08/13 01:53:01;;;;;;;33.85;29.58;;;;;;;-145.71;100.00;60690.53;5012257;28;20032;-81
2021/08/13 01:55:28;;;;;;;30.33;24.77;;;;;;;-145.71;100.00;60690.53;5012258;28;20416;-81
2021/08/13 01:57:53;;;;;;;26.00;23.40;;;;;;;-145.71;100.00;60690.53;5030411;28;20440;-81
2021/08/13 02:00:21;;;;;;;33.38;29.33;;;;;;;-145.71;100.00;60690.53;5033726;28;20033;-81
2021/08/13 02:02:47;;;;;;;39.05;30.85;;;;;;;-145.71;100.00;60690.53;5033484;28;20079;-82
2021/08/13 02:05:17;;;;;;;30.85;27.40;;;;;;;-145.71;100.00;60690.53;5033569;28;20442;-82
2021/08/13 02:07:43;;;;;;;31.38;28.02;;;;;;;-145.71;100.00;60690.53;5033270;28;20045;-82
2021/08/13 02:10:10;;;;;;;30.90;26.33;;;;;;;-145.71;100.00;60690.53;5034802;28;20107;-82
2021/08/13 02:12:35;;;;;;;33.67;28.38;;;;;;;-145.71;100.00;60690.53;5039310;28;20083;-82
2021/08/13 02:15:03;;;;;;;29.63;26.52;;;;;;;-145.71;100.00;60690.53;5019210;28;20033;-82
2021/08/13 02:17:33;;;;;;;33.10;29.55;;;;;;;-145.71;100.00;60690.53;5036093;28;20460;-82
2021/08/13 02:20:07;;;;;;;35.05;31.42;;;;;;;-145.71;100.00;60690.53;5017045;28;20029;-82
2021/08/13 02:22:32;;;;;;;29.92;26.15;;;;;;;-145.71;100.00;60690.53;5017187;28;20032;-82
2021/08/13 02:24:58;;;;;;;41.67;34.83;;;;;;;-145.71;100.00;60690.53;5034235;28;20501;-82
2021/08/13 02:27:25;;;;;;;34.42;29.15;;;;;;;-145.71;100.00;60690.53;5033882;28;20437;-82
2021/08/13 02:29:51;;;;;;;40.08;35.70;;;;;;;-145.71;100.00;60690.53;5015597;28;20025;-82
2021/08/13 02:32:17;;;;;;;34.03;30.58;;;;;;;-145.71;100.00;60690.53;5033354;28;20040;-82
2021/08/13 02:34:42;;;;;;;45.72;39.83;;;;;;;-145.71;100.00;60690.53;5015190;28;20436;-82
2021/08/13 02:37:15;;;;;;;37.20;33.00;;;;;;;-145.71;100.00;60690.53;5033143;28;20080;-82
2021/08/13 02:40:01;;;;;;;37.15;31.30;;;;;;;-145.71;100.00;60690.53;5032732;28;20040;-82
2021/08/13 02:42:33;;;;;;;34.50;31.00;;;;;;;-145.71;100.00;60690.53;5017348;28;20036;-81
2021/08/13 02:45:00;;;;;;;35.00;31.48;;;;;;;-145.71;100.00;60690.53;5035984;28;20029;-82
2021/08/13 02:47:29;;;;;;;36.95;32.97;;;;;;;-145.71;100.00;60690.53;5039083;28;20053;-82
2021/08/13 02:50:04;;;;;;;35.35;31.65;;;;;;;-145.71;100.00;60690.53;5019145;28;20029;-82
2021/08/13 02:52:33;;;;;;;37.85;33.80;;;;;;;-145.71;100.00;60690.53;5035991;28;20490;-82
2021/08/13 02:55:04;;;;;;;45.15;39.90;;;;;;;-145.71;100.00;60690.53;5035109;28;20037;-82
2021/08/13 02:57:33;;;;;;;37.60;33.67;;;;;;;-145.71;100.00;60690.53;5033948;28;20489;-82
2021/08/13 03:00:02;;;;;;;51.53;44.05;;;;;;;-145.71;100.00;60690.53;5033775;28;20036;-82
2021/08/13 03:02:30;;;;;;;44.60;38.47;;;;;;;-145.71;100.00;60690.53;5033522;28;20164;-82
2021/08/13 03:04:57;;;;;;;42.65;37.67;;;;;;;-145.71;100.00;60690.53;5015224;28;20175;-82
2021/08/13 03:07:24;;;;;;;45.83;39.28;;;;;;;-145.71;100.00;60690.53;5032804;28;20428;-82
2021/08/13 03:09:50;;;;;;;39.25;34.03;;;;;;;-145.71;100.00;60690.53;5014447;28;20122;-82
2021/08/13 03:12:16;;;;;;;37.95;33.03;;;;;;;-145.71;100.00;60690.53;5016900;28;20037;-81
2021/08/13 03:14:42;;;;;;;40.97;35.83;;;;;;;-145.71;100.00;60690.53;5034648;28;20029;-82
2021/08/13 03:17:08;;;;;;;58.72;45.95;;;;;;;-145.71;100.00;60690.53;5015811;28;20036;-82
2021/08/13 03:19:34;;;;;;;43.17;35.50;;;;;;;-145.71;100.00;60690.53;5015989;28;20111;-82
2021/08/13 03:22:00;;;;;;;51.10;43.42;;;;;;;-145.71;100.00;60690.53;5014766;28;20060;-81
2021/08/13 03:24:26;;;;;;;58.58;42.58;;;;;;;-145.71;100.00;60690.53;5037047;28;20131;-82
2021/08/13 03:26:51;;;;;;;41.67;37.22;;;;;;;-145.71;100.00;60690.53;5035383;28;20053;-82
2021/08/13 03:29:17;;;;;;;50.40;43.17;;;;;;;-145.71;100.00;60690.53;5035648;28;20507;-82
2021/08/13 03:31:44;;;;;;;61.38;48.08;;;;;;;-145.71;100.00;60690.53;5034246;28;20033;-82
2021/08/13 03:34:10;;;;;;;56.92;44.17;;;;;;;-145.71;100.00;60690.53;5033593;28;20715;-82
2021/08/13 03:36:37;;;;;;;51.72;43.33;;;;;;;-145.71;100.00;60690.53;5033395;28;20088;-82
2021/08/13 03:39:07;;;;;;;42.45;37.97;;;;;;;-145.71;100.00;60690.53;5033138;28;20057;-82
2021/08/13 03:41:32;;;;;;;64.20;50.67;;;;;;;-145.71;100.00;60690.53;5033626;28;20088;-82
2021/08/13 03:43:58;;;;;;;61.85;51.10;;;;;;;-145.71;100.00;60690.53;5034779;28;20477;-82
2021/08/13 03:46:23;;;;;;;67.00;53.00;;;;;;;-145.71;100.00;60690.53;5033583;28;20040;-81
2021/08/13 03:48:49;;;;;;;48.83;42.17;;;;;;;-145.71;100.00;60690.53;5033237;28;20029;-82
2021/08/13 03:51:14;;;;;;;67.05;53.78;;;;;;;-145.71;100.00;60690.53;5032957;28;20029;-82
2021/08/13 03:53:39;;;;;;;47.67;41.47;;;;;;;-145.71;100.00;60690.53;5016606;28;20140;-82
2021/08/13 03:56:05;;;;;;;73.88;58.38;;;;;;;-145.71;100.00;60690.53;5035571;28;20390;-82
2021/08/13 03:58:30;;;;;;;74.85;60.03;;;;;;;-145.71;100.00;60690.53;5034325;28;20021;-80
2021/08/13 04:00:56;;;;;;;67.18;56.35;;;;;;;-145.71;100.00;60690.53;5033254;28;20029;-82
2021/08/13 04:03:21;;;;;;;75.15;56.88;;;;;;;-145.71;100.00;60690.53;5032987;28;20064;-82
2021/08/13 04:05:46;;;;;;;70.18;58.35;;;;;;;-145.71;100.00;60690.53;5014615;28;20099;-82
2021/08/13 04:08:12;;;;;;;66.55;55.50;;;;;;;-145.71;100.00;60690.53;5032433;28;20570;-82
2021/08/13 04:10:37;;;;;;;76.60;57.33;;;;;;;-145.71;100.00;60690.53;5016899;28;20033;-81
2021/08/13 04:13:02;;;;;;;52.15;44.83;;;;;;;-145.71;100.00;60690.53;5033334;28;20033;-81
2021/08/13 04:15:29;;;;;;;52.97;44.95;;;;;;;-145.71;100.00;60690.53;5033201;28;20033;-81
2021/08/13 04:17:54;;;;;;;64.50;52.00;;;;;;;-145.71;100.00;60690.53;5032573;28;20056;-81
2021/08/13 04:20:20;;;;;;;68.78;54.08;;;;;;;-145.71;100.00;60690.53;5031860;28;20477;-81
2021/08/13 04:22:45;;;;;;;62.20;49.97;;;;;;;-145.71;100.00;60690.53;5030562;28;20048;-81
2021/08/13 04:25:10;;;;;;;57.55;49.70;;;;;;;-145.71;100.00;60690.53;5031432;28;20076;-81
2021/08/13 04:27:35;;;;;;;72.38;55.58;;;;;;;-145.71;100.00;60690.53;5034846;28;20022;-82
2021/08/13 04:30:01;;;;;;;82.53;61.75;;;;;;;-145.71;100.00;60690.53;5033881;28;20099;-82
2021/08/13 04:32:26;;;;;;;52.90;43.72;;;;;;;-145.71;100.00;60690.53;5032816;28;20366;-81
2021/08/13 04:34:52;;;;;;;70.00;57.15;;;;;;;-145.71;100.00;60690.53;5033303;28;20037;-82
2021/08/13 04:37:17;;;;;;;62.25;50.05;;;;;;;-145.71;100.00;60690.53;5014665;28;20037;-82
2021/08/13 04:39:42;;;;;;;67.63;55.92;;;;;;;-145.71;100.00;60690.53;5032921;28;20021;-81
2021/08/13 04:42:08;;;;;;;70.78;57.28;;;;;;;-145.71;100.00;60690.53;5033891;28;20546;-82
2021/08/13 04:44:33;;;;;;;63.25;52.53;;;;;;;-145.71;100.00;60690.53;5015289;28;20120;-81
2021/08/13 04:46:59;;;;;;;60.95;49.85;;;;;;;-145.71;100.00;60690.53;5032185;28;20029;-80
2021/08/13 04:49:25;;;;;;;56.38;49.95;;;;;;;-145.71;100.00;60690.53;5013651;28;20390;-81
2021/08/13 04:51:50;;;;;;;69.18;54.97;;;;;;;-145.71;100.00;60690.53;5031965;28;20036;-82
2021/08/13 04:54:15;;;;;;;67.97;54.20;;;;;;;-145.71;100.00;60690.53;5031294;28;20370;-81
2021/08/13 04:56:41;;;;;;;70.68;56.28;;;;;;;-145.71;100.00;60690.53;5012784;28;20695;-81
2021/08/13 04:59:06;;;;;;;67.82;50.13;;;;;;;-145.71;100.00;60690.53;5030070;28;20112;-81
2021/08/13 05:01:31;;;;;;;80.82;57.28;;;;;;;-145.71;100.00;60690.53;5030211;28;20436;-81
2021/08/13 05:03:57;;;;;;;75.07;58.08;;;;;;;-145.71;100.00;60690.53;5012232;28;20029;-80
2021/08/13 05:06:22;;;;;;;59.58;49.72;;;;;;;-145.71;100.00;60690.53;5030655;28;20029;-82
2021/08/13 05:08:47;;;;;;;74.35;55.95;;;;;;;-145.71;100.00;60690.53;5029924;28;20111;-81
2021/08/13 05:11:13;;;;;;;50.67;43.42;;;;;;;-145.71;100.00;60690.53;5030064;28;20401;-81
2021/08/13 05:13:38;;;;;;;53.20;46.90;;;;;;;-145.71;100.00;60690.53;5029745;28;20114;-81
2021/08/13 05:16:04;;;;;;;66.82;54.15;;;;;;;-145.71;100.00;60690.53;5012784;28;20044;-82
2021/08/13 05:18:29;;;;;;;57.75;47.97;;;;;;;-145.71;100.00;60690.53;5017185;28;20032;-82
2021/08/13 05:20:58;;;;;;;67.95;53.83;;;;;;;-145.71;100.00;60690.53;5015813;28;20018;-82
2021/08/13 05:23:23;;;;;;;68.20;56.75;;;;;;;-145.71;100.00;60690.53;5016636;28;20131;-81
2021/08/13 05:25:49;;;;;;;51.17;45.33;;;;;;;-145.71;100.00;60690.53;5034391;28;20108;-82
2021/08/13 05:28:14;;;;;;;50.83;43.03;;;;;;;-145.71;100.00;60690.53;5033101;28;20033;-82
2021/08/13 05:30:39;;;;;;;52.85;45.20;;;;;;;-145.71;100.00;60690.53;5014557;28;20033;-82
2021/08/13 05:33:05;;;;;;;60.65;46.85;;;;;;;-145.71;100.00;60690.53;5031973;28;20542;-82
2021/08/13 05:35:30;;;;;;;52.42;45.92;;;;;;;-145.71;100.00;60690.53;5036198;28;20079;-82
2021/08/13 05:37:58;;;;;;;57.70;47.03;;;;;;;-145.71;100.00;60690.53;5035826;28;20462;-81
2021/08/13 05:40:24;;;;;;;52.22;42.78;;;;;;;-145.71;100.00;60690.53;5035539;28;20032;-82
2021/08/13 05:42:49;;;;;;;48.17;41.80;;;;;;;-145.71;100.00;60690.53;5035217;28;20041;-82
2021/08/13 05:45:14;;;;;;;50.85;42.72;;;;;;;-145.71;100.00;60690.53;5017201;28;20112;-82
2021/08/13 05:47:40;;;;;;;44.60;37.60;;;;;;;-145.71;100.00;60690.53;5034640;28;20421;-82
2021/08/13 05:50:07;;;;;;;44.30;39.47;;;;;;;-145.71;100.00;60690.53;5034649;28;20060;-81
2021/08/13 05:52:32;;;;;;;52.05;44.30;;;;;;;-145.71;100.00;60690.53;5034400;28;20032;-83
2021/08/13 05:54:57;;;;;;;53.00;45.63;;;;;;;-145.71;100.00;60690.53;5035463;28;20033;-82
2021/08/13 05:57:23;;;;;;;56.78;42.72;;;;;;;-145.71;100.00;60690.53;5017006;28;20030;-82
2021/08/13 05:59:48;;;;;;;45.38;39.05;;;;;;;-145.71;100.00;60690.53;5034575;28;20036;-82
2021/08/13 06:02:20;;;;;;;40.85;36.55;;;;;;;-145.71;100.00;60690.53;5034284;28;20389;-82
2021/08/13 06:04:45;;;;;;;44.30;39.17;;;;;;;-145.71;100.00;60690.53;5038213;28;20100;-82
2021/08/13 06:07:10;;;;;;;46.63;40.80;;;;;;;-145.71;100.00;60690.53;5038675;28;20053;-83
2021/08/13 06:09:36;;;;;;;40.80;34.78;;;;;;;-145.71;100.00;60690.53;5018729;28;20044;-81
2021/08/13 06:12:01;;;;;;;41.13;32.40;;;;;;;-145.71;100.00;60690.53;5034681;28;20537;-80
2021/08/13 06:14:27;;;;;;;35.85;31.50;;;;;;;-145.71;100.00;60690.53;5033947;28;20091;-80
2021/08/13 06:16:52;;;;;;;36.20;32.22;;;;;;;-145.71;100.00;60690.53;5033822;28;20036;-80
2021/08/13 06:19:17;;;;;;;33.50;29.88;;;;;;;-145.71;100.00;60690.53;5015800;28;20075;-79
2021/08/13 06:21:42;;;;;;;42.17;34.92;;;;;;;-145.71;100.00;60690.53;5018358;28;20037;-80
2021/08/13 06:24:08;;;;;;;44.05;35.28;;;;;;;-145.71;100.00;60690.53;5034904;28;20179;-80
2021/08/13 06:26:33;;;;;;;34.50;30.38;;;;;;;-145.71;100.00;60690.53;5034102;28;20481;-80
2021/08/13 06:28:58;;;;;;;31.98;28.67;;;;;;;-145.71;100.00;60690.53;5035127;28;20030;-80
2021/08/13 06:31:24;;;;;;;35.92;32.08;;;;;;;-145.71;100.00;60690.53;5035030;28;20033;-79
2021/08/13 06:33:50;;;;;;;37.97;31.90;;;;;;;-145.71;100.00;60690.53;5033490;28;20032;-79
2021/08/13 06:36:15;;;;;;;37.10;32.85;;;;;;;-145.71;100.00;60690.53;5035614;28;20063;-79
2021/08/13 06:38:40;;;;;;;34.63;30.05;;;;;;;-145.71;100.00;60690.53;5033728;28;20034;-79
2021/08/13 06:41:06;;;;;;;35.28;31.23;;;;;;;-145.71;100.00;60690.53;5033831;28;20030;-79
2021/08/13 06:43:31;;;;;;;35.15;29.67;;;;;;;-145.71;100.00;60690.53;5035019;28;20060;-79
2021/08/13 06:45:56;;;;;;;36.50;30.98;;;;;;;-145.71;100.00;60690.53;5034724;28;20060;-79
2021/08/13 06:48:22;;;;;;;35.38;28.63;;;;;;;-145.71;100.00;60690.53;5034071;28;20404;-79
2021/08/13 06:50:47;;;;;;;27.52;24.60;;;;;;;-145.71;100.00;60690.53;5033659;28;20041;-79
2021/08/13 06:53:12;;;;;;;34.75;27.15;;;;;;;-145.71;100.00;60690.53;5033278;28;20477;-79
2021/08/13 06:55:38;;;;;;;31.08;24.20;;;;;;;-145.71;100.00;60690.53;5035447;28;20033;-79
2021/08/13 06:58:04;;;;;;;28.48;23.30;;;;;;;-145.71;100.00;60690.53;5034777;28;20100;-79
2021/08/13 07:00:29;;;;;;;32.67;25.02;;;;;;;-145.71;100.00;60690.53;5035246;28;20532;-79
2021/08/13 07:02:54;;;;;;;28.38;22.90;;;;;;;-145.71;100.00;60690.53;5036303;28;20030;-79
2021/08/13 07:05:19;;;;;;;27.08;21.83;;;;;;;-145.71;100.00;60690.53;5034740;28;20469;-79
2021/08/13 07:07:46;;;;;;;24.55;21.38;;;;;;;-145.71;100.00;60690.53;5015281;28;20056;-79
2021/08/13 07:10:12;;;;;;;25.98;21.88;;;;;;;-145.71;100.00;60690.53;5033200;28;20106;-79
2021/08/13 07:12:38;;;;;;;25.50;21.83;;;;;;;-145.71;100.00;60690.53;5032471;28;20571;-78
2021/08/13 07:15:05;;;;;;;24.52;20.83;;;;;;;-145.71;100.00;60690.53;5032174;28;20051;-79
2021/08/13 07:17:31;;;;;;;25.17;20.80;;;;;;;-145.71;100.00;60690.53;5014928;28;20029;-79
2021/08/13 07:19:56;;;;;;;24.17;19.40;;;;;;;-145.71;100.00;60690.53;5034265;28;20389;-79
2021/08/13 07:22:21;;;;;;;19.23;16.90;;;;;;;-145.71;100.00;60690.53;5034950;28;20025;-79
2021/08/13 07:24:46;;;;;;;23.65;18.65;;;;;;;-145.71;100.00;60690.53;5016176;28;20542;-79
2021/08/13 07:27:12;;;;;;;21.95;17.25;;;;;;;-145.71;100.00;60690.53;5015250;28;20052;-79
2021/08/13 07:29:37;;;;;;;21.20;16.52;;;;;;;-145.71;100.00;60690.53;5033101;28;20440;-79
2021/08/13 07:32:03;;;;;;;16.63;14.80;;;;;;;-145.71;100.00;60690.53;5032357;28;20159;-79
2021/08/13 07:34:28;;;;;;;17.80;13.73;;;;;;;-145.71;100.00;60690.53;5031969;28;20036;-79
2021/08/13 07:36:53;;;;;;;17.90;13.25;;;;;;;-145.71;100.00;60690.53;5031336;28;20036;-79
2021/08/13 07:39:19;;;;;;;16.83;12.02;;;;;;;-145.71;100.00;60690.53;5032955;28;20551;-79
2021/08/13 07:41:44;;;;;;;17.20;12.48;;;;;;;-145.71;100.00;60690.53;5035073;28;20374;-79
2021/08/13 07:44:10;;;;;;;14.10;10.90;;;;;;;-145.71;100.00;60690.53;5016324;28;20036;-79
2021/08/13 07:46:35;;;;;;;14.77;11.00;;;;;;;-145.71;100.00;60690.53;5032846;28;20120;-79
2021/08/13 07:49:01;;;;;;;16.00;11.80;;;;;;;-145.71;100.00;60690.53;5031889;28;20424;-79
2021/08/13 07:51:27;;;;;;;16.02;12.85;;;;;;;-145.71;100.00;60690.53;5031860;28;20031;-79
2021/08/13 07:53:53;;;;;;;12.52;11.23;;;;;;;-145.71;100.00;60690.53;5030937;28;20482;-79
2021/08/13 07:56:18;;;;;;;19.23;12.80;;;;;;;-145.71;100.00;60690.53;5031191;28;20121;-79
2021/08/13 07:58:44;;;;;;;15.13;11.93;;;;;;;-145.71;100.00;60690.53;5032107;28;20488;-79
2021/08/13 08:01:09;;;;;;;12.77;11.15;;;;;;;-145.71;100.00;60690.53;5034645;28;20487;-79
2021/08/13 08:03:34;;;;;;;15.27;11.52;;;;;;;-145.71;100.00;60690.53;5014968;28;20071;-79
2021/08/13 08:06:00;;;;;;;17.00;12.57;;;;;;;-145.71;100.00;60690.53;5014447;28;20025;-79
2021/08/13 08:08:25;;;;;;;11.73;10.63;;;;;;;-145.71;100.00;60690.53;5013416;28;20460;-78
2021/08/13 08:10:50;;;;;;;19.23;12.23;;;;;;;-145.71;100.00;60690.53;5031200;28;20029;-79
2021/08/13 08:13:17;;;;;;;14.27;12.32;;;;;;;-145.71;100.00;60690.53;5030734;28;20124;-79
2021/08/13 08:15:43;;;;;;;15.25;11.85;;;;;;;-145.71;100.00;60690.53;5012934;28;20033;-79
2021/08/13 08:18:09;;;;;;;16.00;12.23;;;;;;;-145.71;100.00;60690.53;5033342;28;20037;-79
2021/08/13 08:20:35;;;;;;;14.18;12.68;;;;;;;-145.71;100.00;60690.53;5016208;28;20025;-79
2021/08/13 08:23:00;;;;;;;14.88;11.07;;;;;;;-145.71;100.00;60690.53;5014838;28;20053;-79
2021/08/13 08:25:26;;;;;;;13.35;11.20;;;;;;;-145.71;100.00;60690.53;5031896;28;20501;-79
2021/08/13 08:27:51;;;;;;;14.50;11.95;;;;;;;-145.71;100.00;60690.53;5031502;28;20037;-79
2021/08/13 08:30:16;;;;;;;14.48;11.25;;;;;;;-145.71;100.00;60690.53;5031008;28;20049;-79
2021/08/13 08:32:41;;;;;;;15.05;10.80;;;;;;;-145.71;100.00;60690.53;5030810;28;20036;-78
2021/08/13 08:35:07;;;;;;;13.25;10.00;;;;;;;-145.71;100.00;60690.53;5030548;28;20041;-79
2021/08/13 08:37:32;;;;;;;13.90;11.38;;;;;;;-145.71;100.00;60690.53;5015041;28;20025;-79
2021/08/13 08:39:58;;;;;;;14.10;11.18;;;;;;;-145.71;100.00;60690.53;5032838;28;20444;-79
2021/08/13 08:42:23;;;;;;;14.50;10.10;;;;;;;-145.71;100.00;60690.53;5032424;28;20025;-79
2021/08/13 08:44:49;;;;;;;13.25;11.13;;;;;;;-145.71;100.00;60690.53;5013947;28;20029;-79
2021/08/13 08:47:18;;;;;;;12.85;10.52;;;;;;;-145.71;100.00;60690.53;5030847;28;20029;-79
2021/08/13 08:49:45;;;;;;;10.48;9.38;;;;;;;-145.71;100.00;60690.53;5030815;28;20040;-79
2021/08/13 08:52:11;;;;;;;12.88;8.50;;;;;;;-145.71;100.00;60690.53;5030275;28;20032;-79
2021/08/13 08:54:40;;;;;;;8.50;7.43;;;;;;;-145.71;100.00;60690.53;5031815;28;20032;-79
2021/08/13 08:57:06;;;;;;;15.00;8.15;;;;;;;-145.71;100.00;60690.53;5031995;28;20036;-79
2021/08/13 08:59:32;;;;;;;15.13;8.73;;;;;;;-145.71;100.00;60690.53;5032421;28;20452;-79
2021/08/13 09:01:58;;;;;;;10.23;8.07;;;;;;;-145.71;100.00;60690.53;5032408;28;20041;-79
2021/08/13 09:04:23;;;;;;;8.52;7.65;;;;;;;-145.71;100.00;60690.53;5031409;28;20037;-79
2021/08/13 09:06:49;;;;;;;7.80;6.40;;;;;;;-145.71;100.00;60690.53;5030640;28;20034;-79
2021/08/13 09:09:15;;;;;;;6.57;5.03;;;;;;;-145.71;100.00;60690.53;5029257;28;20441;-79
2021/08/13 09:11:41;;;;;;;6.97;4.95;;;;;;;-145.71;100.00;60690.53;5031359;28;20029;-79
2021/08/13 09:14:11;;;;;;;5.18;4.18;;;;;;;-145.71;100.00;60690.53;5032964;28;20385;-79
2021/08/13 09:16:39;;;;;;;6.18;4.55;;;;;;;-145.71;100.00;60690.53;5032330;28;20056;-79
2021/08/13 09:19:07;;;;;;;6.72;4.60;;;;;;;-145.71;100.00;60690.53;5014593;28;20036;-79
2021/08/13 09:21:34;;;;;;;6.72;5.13;;;;;;;-145.71;100.00;60690.53;5031860;28;20033;-79
2021/08/13 09:24:08;;;;;;;5.53;5.03;;;;;;;-145.71;100.00;60690.53;5030772;28;20053;-79
2021/08/13 09:26:42;;;;;;;4.80;4.30;;;;;;;-145.71;100.00;60690.53;5032159;28;20056;-79
2021/08/13 09:29:09;;;;;;;6.00;5.32;;;;;;;-145.71;100.00;60690.53;5033109;28;20064;-79
2021/08/13 09:31:36;;;;;;;6.15;4.25;;;;;;;-145.71;100.00;60690.53;5030719;28;20140;-79
2021/08/13 09:34:13;;;;;;;6.35;4.90;;;;;;;-145.71;100.00;60690.53;5029718;28;20034;-79
2021/08/13 09:36:52;;;;;;;7.63;5.15;;;;;;;-145.71;100.00;60690.53;5031316;28;20064;-81
2021/08/13 09:39:27;;;;;;;5.10;4.60;;;;;;;-145.71;100.00;60690.53;5031301;28;20022;-81
2021/08/13 09:41:58;;;;;;;5.50;4.55;;;;;;;-145.71;100.00;60690.53;5033419;28;20041;-81
2021/08/13 09:44:31;;;;;;;7.82;5.05;;;;;;;-145.71;100.00;60690.53;5031561;28;20025;-81
2021/08/13 09:46:58;;;;;;;6.47;4.20;;;;;;;-145.71;100.00;60690.53;5030899;28;20029;-81
2021/08/13 09:49:23;;;;;;;5.93;4.40;;;;;;;-145.71;100.00;60690.53;5030400;28;20030;-81
2021/08/13 09:51:49;;;;;;;5.88;4.60;;;;;;;-145.71;100.00;60690.53;5032857;28;20136;-81
2021/08/13 09:54:14;;;;;;;4.88;3.88;;;;;;;-145.71;100.00;60690.53;5032660;28;20029;-81
2021/08/13 09:56:41;;;;;;;5.03;4.35;;;;;;;-145.71;100.00;60690.53;5031141;28;20108;-81
2021/08/13 09:59:18;;;;;;;5.82;4.22;;;;;;;-145.71;100.00;60690.53;5031006;28;20029;-81
2021/08/13 10:01:45;;;;;;;6.63;4.70;;;;;;;-145.71;100.00;60690.53;5030902;28;20617;-82
2021/08/13 10:04:11;;;;;;;4.35;3.95;;;;;;;-145.71;100.00;60690.53;5014123;28;20053;-81
2021/08/13 10:06:38;;;;;;;4.65;3.50;;;;;;;-145.71;100.00;60690.53;5032001;28;20030;-81
2021/08/13 10:09:05;;;;;;;4.97;3.33;;;;;;;-145.71;100.00;60690.53;5031153;28;20021;-81
2021/08/13 10:11:35;;;;;;;3.75;3.35;;;;;;;-145.71;100.00;60690.53;5031977;28;20111;-81
2021/08/13 10:14:03;;;;;;;5.40;3.35;;;;;;;-145.71;100.00;60690.53;5032844;28;20029;-81
2021/08/13 10:16:28;;;;;;;5.07;3.88;;;;;;;-145.71;100.00;60690.53;5031684;28;20047;-81
2021/08/13 10:18:58;;;;;;;5.82;3.33;;;;;;;-145.71;100.00;60690.53;5030630;28;20096;-80
2021/08/13 10:21:28;;;;;;;4.43;3.17;;;;;;;-145.71;100.00;60690.53;5015331;28;20040;-81
2021/08/13 10:23:55;;;;;;;4.60;3.15;;;;;;;-145.71;100.00;60690.53;5035353;28;20057;-81
2021/08/13 10:26:21;;;;;;;4.35;3.13;;;;;;;-145.71;100.00;60690.53;5018541;28;20481;-81
2021/08/13 10:28:48;;;;;;;8.50;3.35;;;;;;;-145.71;100.00;60690.53;5017067;28;20038;-81
2021/08/13 10:31:18;;;;;;;2.88;2.58;;;;;;;-145.71;100.00;60690.53;5037091;28;20033;-81
2021/08/13 10:33:45;;;;;;;3.15;2.03;;;;;;;-145.71;100.00;60690.53;5035901;28;20027;-81
2021/08/13 10:36:15;;;;;;;3.45;2.40;;;;;;;-145.71;100.00;60690.53;5017265;28;20029;-81
2021/08/13 10:38:40;;;;;;;6.85;2.15;;;;;;;-145.71;100.00;60690.53;5034655;28;20052;-81
2021/08/13 10:41:06;;;;;;;2.92;2.10;;;;;;;-145.71;100.00;60690.53;5034023;28;20061;-81
2021/08/13 10:43:36;;;;;;;5.63;2.10;;;;;;;-145.71;100.00;60690.53;5033103;28;20033;-81
2021/08/13 10:46:05;;;;;;;2.83;2.13;;;;;;;-145.71;100.00;60690.53;5033289;28;20084;-81
2021/08/13 10:48:34;;;;;;;3.30;2.42;;;;;;;-145.71;100.00;60690.53;5035028;28;20068;-81
2021/08/13 10:51:00;;;;;;;3.55;2.17;;;;;;;-145.71;100.00;60690.53;5018447;28;20025;-81
2021/08/13 10:53:28;;;;;;;4.35;2.28;;;;;;;-145.71;100.00;60690.53;5035689;28;20509;-81
2021/08/13 10:55:54;;;;;;;2.42;2.10;;;;;;;-145.71;100.00;60690.53;5034630;28;20037;-81